Western Neb. Rgnl/William B. Heilig Airport
KBFF : now visible

Airfield :











YOU CAN JOIN US ON...

 
LOGIN :

Register | Disclaimer

   EN    FR    IT 

 









Legend :    VFR   Marginal VFR   IFR   Intensive IFR   Very Intensive IFR
Visi :
Ceiling :
>= 8 km
>= 3000ft
5 to 8 km
1000 to 3000 ft
1500m to 5 km
500 to 1000 ft
800 to 1500m
200 to 500 ft
< 800m
< 200 ft
Symbols :   Thunderstorms  Fog  Heavy snow  Heavy precipitations  Wind > 20 kt






- Airport Elevation : 3967 ft
- IATA code : BFF


KBFF - Western Neb. Rgnl/William B. Heilig

CURRENT METAR :
  • 291253Z AUTO 28006KT 10SM CLR M06/M07 A3004 RMK AO2 SLP209 T10611072

EXPIRED METARs :
  • 291153Z AUTO 00000KT 10SM SCT065 M06/M08 A3003 RMK AO2 SLP195 T10611078 11044 21067 53005
  • 291053Z AUTO 00000KT 10SM FEW060 M06/M07 A3002 RMK AO2 SLP185 T10611072

TAF KBFF
Valid from the 29 at 12:00 until the 30 at 12:00 UTC


291120Z 2912/3012 02006KT P6SM BKN150
FM291500 31009KT 6SM -SHRASN BKN025
FM291900 31009KT 6SM -SHSNRA OVC016
FM292100 31009KT P6SM OVC025
FM300300 29005KT P6SM OVC035
FM301100 26006KT 5SM BR SCT027



MET'MAP, your aeronautical weather chart ! - Copyright ORBIFLY December 2007 - Disclaimer

ORBIFLY MET'MAP TEAM :

Programming & Development : Alexandra Zaïnal
Concept & original design : Baudouin d'Aumeries
Assistance for programming : Marc-Olivier Méhu
Technical & hardware support : Manuel Goepfert

Contact : metmap@orbifly.com




SOURCES & CREDITS :

   NOAA       Earth
Advisory